Waynetown, Indiana
Current Conditions -  °F | °C
As of 12:54 PM on Saturday 25 Oct 2014 (Local Time) from KLAF Reporting Station
Clear Clear  
Wind Chill: 17°   Ceiling: Unl
Heat Index: 17°   Visibility: 10mi
Dew Point: 13°   Wind: 12mph
Humidity: 75%   Direction: 270°W
Pressure: 29.96"   Gusts: NA
Location:  40.09°N, 87.06°W
Report Text: KLAF 251654Z 27010KT 10SM CLR 17/13 A2996 RMK AO2 SLP146 T01720128
Loading
Personal Weather Stations






























Interactive Weather Map
Tropical Storm Tracking
New forecast layout! Learn more

10-Day Weather Forecast

Advertisements
Track Severe Weather on mobile